sensor_id;sensor_type;location;lat;lon;timestamp;temperature;humidity
10411;DHT22;5251;52.112;8.606;2022-12-07T00:01:22;8.00;99.90
10411;DHT22;5251;52.112;8.606;2022-12-07T00:03:50;8.00;99.90
10411;DHT22;5251;52.112;8.606;2022-12-07T00:06:17;8.00;99.90
10411;DHT22;5251;52.112;8.606;2022-12-07T00:08:43;8.00;99.90
10411;DHT22;5251;52.112;8.606;2022-12-07T00:11:17;8.10;99.90
10411;DHT22;5251;52.112;8.606;2022-12-07T00:13:44;8.10;99.90
10411;DHT22;5251;52.112;8.606;2022-12-07T00:16:15;8.10;99.90
10411;DHT22;5251;52.112;8.606;2022-12-07T00:18:42;8.10;99.90
10411;DHT22;5251;52.112;8.606;2022-12-07T00:21:14;8.10;99.90
10411;DHT22;5251;52.112;8.606;2022-12-07T00:23:42;8.10;99.90
10411;DHT22;5251;52.112;8.606;2022-12-07T00:28:37;8.20;99.90
10411;DHT22;5251;52.112;8.606;2022-12-07T00:31:11;8.20;99.90
10411;DHT22;5251;52.112;8.606;2022-12-07T00:33:37;8.20;99.90
10411;DHT22;5251;52.112;8.606;2022-12-07T00:36:12;8.20;99.90
10411;DHT22;5251;52.112;8.606;2022-12-07T00:38:39;8.20;99.90
10411;DHT22;5251;52.112;8.606;2022-12-07T00:41:11;8.20;99.90
10411;DHT22;5251;52.112;8.606;2022-12-07T00:43:37;8.30;99.90
10411;DHT22;5251;52.112;8.606;2022-12-07T00:46:04;8.20;99.90
10411;DHT22;5251;52.112;8.606;2022-12-07T00:48:30;8.30;99.90
10411;DHT22;5251;52.112;8.606;2022-12-07T00:50:56;8.30;99.90
10411;DHT22;5251;52.112;8.606;2022-12-07T00:53:22;8.30;99.90
10411;DHT22;5251;52.112;8.606;2022-12-07T00:55:47;8.30;99.90
10411;DHT22;5251;52.112;8.606;2022-12-07T00:58:13;8.30;99.90
10411;DHT22;5251;52.112;8.606;2022-12-07T01:00:41;8.30;99.90
10411;DHT22;5251;52.112;8.606;2022-12-07T01:03:08;8.30;99.90
10411;DHT22;5251;52.112;8.606;2022-12-07T01:05:34;8.30;99.90
10411;DHT22;5251;52.112;8.606;2022-12-07T01:08:00;8.30;99.90
10411;DHT22;5251;52.112;8.606;2022-12-07T01:10:26;8.30;99.90
10411;DHT22;5251;52.112;8.606;2022-12-07T01:12:52;8.30;99.90
10411;DHT22;5251;52.112;8.606;2022-12-07T01:15:18;8.20;99.90
10411;DHT22;5251;52.112;8.606;2022-12-07T01:17:44;8.30;99.90
10411;DHT22;5251;52.112;8.606;2022-12-07T01:20:10;8.20;99.90
10411;DHT22;5251;52.112;8.606;2022-12-07T01:22:37;8.20;99.90
10411;DHT22;5251;52.112;8.606;2022-12-07T01:25:04;8.10;99.90
10411;DHT22;5251;52.112;8.606;2022-12-07T01:27:30;8.10;99.90
10411;DHT22;5251;52.112;8.606;2022-12-07T01:29:55;8.10;99.90
10411;DHT22;5251;52.112;8.606;2022-12-07T01:32:21;8.00;99.90
10411;DHT22;5251;52.112;8.606;2022-12-07T01:34:48;8.00;99.90
10411;DHT22;5251;52.112;8.606;2022-12-07T01:37:14;7.90;99.90
10411;DHT22;5251;52.112;8.606;2022-12-07T01:39:39;7.80;99.90
10411;DHT22;5251;52.112;8.606;2022-12-07T01:42:11;7.80;99.90
10411;DHT22;5251;52.112;8.606;2022-12-07T01:47:41;7.70;99.90
10411;DHT22;5251;52.112;8.606;2022-12-07T01:50:08;7.60;99.90
10411;DHT22;5251;52.112;8.606;2022-12-07T01:52:35;7.60;99.90
10411;DHT22;5251;52.112;8.606;2022-12-07T01:55:04;7.50;99.90
10411;DHT22;5251;52.112;8.606;2022-12-07T01:57:34;7.50;99.90
10411;DHT22;5251;52.112;8.606;2022-12-07T02:00:00;7.40;99.90
10411;DHT22;5251;52.112;8.606;2022-12-07T02:02:31;7.40;99.90
10411;DHT22;5251;52.112;8.606;2022-12-07T02:05:00;7.30;99.90
10411;DHT22;5251;52.112;8.606;2022-12-07T02:07:27;7.30;99.90
10411;DHT22;5251;52.112;8.606;2022-12-07T02:09:53;7.30;99.90
10411;DHT22;5251;52.112;8.606;2022-12-07T02:12:19;7.20;99.90
10411;DHT22;5251;52.112;8.606;2022-12-07T02:14:46;7.10;99.90
10411;DHT22;5251;52.112;8.606;2022-12-07T02:17:14;7.10;99.90
10411;DHT22;5251;52.112;8.606;2022-12-07T02:27:52;6.80;99.90
10411;DHT22;5251;52.112;8.606;2022-12-07T02:30:22;6.70;99.90
10411;DHT22;5251;52.112;8.606;2022-12-07T02:33:10;6.70;99.90
10411;DHT22;5251;52.112;8.606;2022-12-07T02:35:45;6.60;99.90
10411;DHT22;5251;52.112;8.606;2022-12-07T02:38:24;6.60;99.90
10411;DHT22;5251;52.112;8.606;2022-12-07T02:40:54;6.60;99.90
10411;DHT22;5251;52.112;8.606;2022-12-07T02:43:26;6.60;99.90
10411;DHT22;5251;52.112;8.606;2022-12-07T02:45:55;6.60;99.90
10411;DHT22;5251;52.112;8.606;2022-12-07T02:48:22;6.50;99.90
10411;DHT22;5251;52.112;8.606;2022-12-07T02:50:52;6.50;99.90
10411;DHT22;5251;52.112;8.606;2022-12-07T02:53:34;6.50;99.90
10411;DHT22;5251;52.112;8.606;2022-12-07T03:01:38;6.50;99.90
10411;DHT22;5251;52.112;8.606;2022-12-07T03:07:00;6.50;99.90
10411;DHT22;5251;52.112;8.606;2022-12-07T03:09:37;6.50;99.90
10411;DHT22;5251;52.112;8.606;2022-12-07T03:12:17;6.50;99.90
10411;DHT22;5251;52.112;8.606;2022-12-07T03:14:56;6.40;99.90
10411;DHT22;5251;52.112;8.606;2022-12-07T03:17:27;6.40;99.90
10411;DHT22;5251;52.112;8.606;2022-12-07T03:20:03;6.40;99.90
10411;DHT22;5251;52.112;8.606;2022-12-07T03:22:31;6.40;99.90
10411;DHT22;5251;52.112;8.606;2022-12-07T03:25:03;6.40;99.90
10411;DHT22;5251;52.112;8.606;2022-12-07T03:27:34;6.40;99.90
10411;DHT22;5251;52.112;8.606;2022-12-07T03:30:14;6.30;99.90
10411;DHT22;5251;52.112;8.606;2022-12-07T03:32:45;6.30;99.90
10411;DHT22;5251;52.112;8.606;2022-12-07T03:35:30;6.20;99.90
10411;DHT22;5251;52.112;8.606;2022-12-07T03:38:10;6.20;99.90
10411;DHT22;5251;52.112;8.606;2022-12-07T03:40:43;6.10;99.90
10411;DHT22;5251;52.112;8.606;2022-12-07T03:43:10;6.10;99.90
10411;DHT22;5251;52.112;8.606;2022-12-07T03:45:44;6.00;99.90
10411;DHT22;5251;52.112;8.606;2022-12-07T03:51:20;6.00;99.90
10411;DHT22;5251;52.112;8.606;2022-12-07T03:53:59;6.00;99.90
10411;DHT22;5251;52.112;8.606;2022-12-07T03:56:26;6.00;99.90
10411;DHT22;5251;52.112;8.606;2022-12-07T03:58:53;5.90;99.90
10411;DHT22;5251;52.112;8.606;2022-12-07T04:01:19;5.90;99.90
10411;DHT22;5251;52.112;8.606;2022-12-07T04:03:44;5.90;99.90
10411;DHT22;5251;52.112;8.606;2022-12-07T04:06:10;5.90;99.90
10411;DHT22;5251;52.112;8.606;2022-12-07T04:08:36;5.90;99.90
10411;DHT22;5251;52.112;8.606;2022-12-07T04:11:02;5.90;99.90
10411;DHT22;5251;52.112;8.606;2022-12-07T04:13:27;5.90;99.90
10411;DHT22;5251;52.112;8.606;2022-12-07T04:15:53;5.80;99.90
10411;DHT22;5251;52.112;8.606;2022-12-07T04:18:18;5.80;99.90
10411;DHT22;5251;52.112;8.606;2022-12-07T04:20:45;5.80;99.90
10411;DHT22;5251;52.112;8.606;2022-12-07T04:23:11;5.80;99.90
10411;DHT22;5251;52.112;8.606;2022-12-07T04:25:37;5.80;99.90
10411;DHT22;5251;52.112;8.606;2022-12-07T04:28:02;5.90;99.90
10411;DHT22;5251;52.112;8.606;2022-12-07T04:30:28;5.80;99.90
10411;DHT22;5251;52.112;8.606;2022-12-07T04:32:54;5.80;99.90
10411;DHT22;5251;52.112;8.606;2022-12-07T04:35:19;5.90;99.90
10411;DHT22;5251;52.112;8.606;2022-12-07T04:37:45;5.90;99.90
10411;DHT22;5251;52.112;8.606;2022-12-07T04:40:11;5.90;99.90
10411;DHT22;5251;52.112;8.606;2022-12-07T04:42:38;5.90;99.90
10411;DHT22;5251;52.112;8.606;2022-12-07T04:45:04;5.90;99.90
10411;DHT22;5251;52.112;8.606;2022-12-07T04:47:29;5.90;99.90
10411;DHT22;5251;52.112;8.606;2022-12-07T04:49:55;5.90;99.90
10411;DHT22;5251;52.112;8.606;2022-12-07T04:52:20;6.00;99.90
10411;DHT22;5251;52.112;8.606;2022-12-07T04:54:46;6.00;99.90
10411;DHT22;5251;52.112;8.606;2022-12-07T04:57:11;6.00;99.90
10411;DHT22;5251;52.112;8.606;2022-12-07T04:59:37;6.00;99.90
10411;DHT22;5251;52.112;8.606;2022-12-07T05:02:03;6.00;99.90
10411;DHT22;5251;52.112;8.606;2022-12-07T05:04:28;6.10;99.90
10411;DHT22;5251;52.112;8.606;2022-12-07T05:06:54;6.10;99.90
10411;DHT22;5251;52.112;8.606;2022-12-07T05:09:19;6.10;99.90
10411;DHT22;5251;52.112;8.606;2022-12-07T05:11:45;6.20;99.90
10411;DHT22;5251;52.112;8.606;2022-12-07T05:14:20;6.20;99.90
10411;DHT22;5251;52.112;8.606;2022-12-07T05:16:48;6.30;99.90
10411;DHT22;5251;52.112;8.606;2022-12-07T05:19:15;6.30;99.90
10411;DHT22;5251;52.112;8.606;2022-12-07T05:21:40;6.20;99.90
10411;DHT22;5251;52.112;8.606;2022-12-07T05:24:08;6.30;99.90
10411;DHT22;5251;52.112;8.606;2022-12-07T05:26:35;6.30;99.90
10411;DHT22;5251;52.112;8.606;2022-12-07T05:29:00;6.40;99.90
10411;DHT22;5251;52.112;8.606;2022-12-07T05:31:26;6.40;99.90
10411;DHT22;5251;52.112;8.606;2022-12-07T05:33:53;6.40;99.90
10411;DHT22;5251;52.112;8.606;2022-12-07T05:36:19;6.40;99.90
10411;DHT22;5251;52.112;8.606;2022-12-07T05:38:45;6.40;99.90
10411;DHT22;5251;52.112;8.606;2022-12-07T05:41:13;6.40;99.90
10411;DHT22;5251;52.112;8.606;2022-12-07T05:43:59;6.40;99.90
10411;DHT22;5251;52.112;8.606;2022-12-07T05:46:25;6.40;99.90
10411;DHT22;5251;52.112;8.606;2022-12-07T05:48:51;6.40;99.90
10411;DHT22;5251;52.112;8.606;2022-12-07T05:51:17;6.50;99.90
10411;DHT22;5251;52.112;8.606;2022-12-07T05:53:44;6.50;99.90
10411;DHT22;5251;52.112;8.606;2022-12-07T05:56:09;6.50;99.90
10411;DHT22;5251;52.112;8.606;2022-12-07T05:58:35;6.50;99.90
10411;DHT22;5251;52.112;8.606;2022-12-07T06:01:19;6.50;99.90
10411;DHT22;5251;52.112;8.606;2022-12-07T06:03:45;6.50;99.90
10411;DHT22;5251;52.112;8.606;2022-12-07T06:06:11;6.50;99.90
10411;DHT22;5251;52.112;8.606;2022-12-07T06:08:36;6.50;99.90
10411;DHT22;5251;52.112;8.606;2022-12-07T06:11:02;6.50;99.90
10411;DHT22;5251;52.112;8.606;2022-12-07T06:13:46;6.50;99.90
10411;DHT22;5251;52.112;8.606;2022-12-07T06:16:12;6.50;99.90
10411;DHT22;5251;52.112;8.606;2022-12-07T06:18:37;6.40;99.90
10411;DHT22;5251;52.112;8.606;2022-12-07T06:21:03;6.30;99.90
10411;DHT22;5251;52.112;8.606;2022-12-07T06:23:29;6.30;99.90
10411;DHT22;5251;52.112;8.606;2022-12-07T06:25:54;6.30;99.90
10411;DHT22;5251;52.112;8.606;2022-12-07T06:28:20;6.20;99.90
10411;DHT22;5251;52.112;8.606;2022-12-07T06:30:45;6.20;99.90
10411;DHT22;5251;52.112;8.606;2022-12-07T06:33:11;6.10;99.90
10411;DHT22;5251;52.112;8.606;2022-12-07T06:35:36;6.10;99.90
10411;DHT22;5251;52.112;8.606;2022-12-07T06:38:02;6.10;99.90
10411;DHT22;5251;52.112;8.606;2022-12-07T06:40:27;6.10;99.90
10411;DHT22;5251;52.112;8.606;2022-12-07T06:42:53;6.10;99.90
10411;DHT22;5251;52.112;8.606;2022-12-07T06:45:18;6.10;99.90
10411;DHT22;5251;52.112;8.606;2022-12-07T06:47:44;6.00;99.90
10411;DHT22;5251;52.112;8.606;2022-12-07T06:50:10;6.00;99.90
10411;DHT22;5251;52.112;8.606;2022-12-07T06:52:35;6.00;99.90
10411;DHT22;5251;52.112;8.606;2022-12-07T06:55:01;6.00;99.90
10411;DHT22;5251;52.112;8.606;2022-12-07T06:57:26;6.10;99.90
10411;DHT22;5251;52.112;8.606;2022-12-07T06:59:52;6.10;99.90
10411;DHT22;5251;52.112;8.606;2022-12-07T07:02:17;6.10;99.90
10411;DHT22;5251;52.112;8.606;2022-12-07T07:04:43;6.10;99.90
10411;DHT22;5251;52.112;8.606;2022-12-07T07:07:09;6.10;99.90
10411;DHT22;5251;52.112;8.606;2022-12-07T07:09:34;6.00;99.90
10411;DHT22;5251;52.112;8.606;2022-12-07T07:12:00;6.00;99.90
10411;DHT22;5251;52.112;8.606;2022-12-07T07:14:25;6.00;99.90
10411;DHT22;5251;52.112;8.606;2022-12-07T07:16:52;5.90;99.90
10411;DHT22;5251;52.112;8.606;2022-12-07T07:19:18;5.90;99.90
10411;DHT22;5251;52.112;8.606;2022-12-07T07:21:43;5.90;99.90
10411;DHT22;5251;52.112;8.606;2022-12-07T07:24:09;5.80;99.90
10411;DHT22;5251;52.112;8.606;2022-12-07T07:26:34;5.80;99.90
10411;DHT22;5251;52.112;8.606;2022-12-07T07:29:00;5.80;99.90
10411;DHT22;5251;52.112;8.606;2022-12-07T07:31:26;5.80;99.90
10411;DHT22;5251;52.112;8.606;2022-12-07T07:33:51;5.70;99.90
10411;DHT22;5251;52.112;8.606;2022-12-07T07:36:17;5.70;99.90
10411;DHT22;5251;52.112;8.606;2022-12-07T07:38:42;5.70;99.90
10411;DHT22;5251;52.112;8.606;2022-12-07T07:41:08;5.60;99.90
10411;DHT22;5251;52.112;8.606;2022-12-07T07:43:34;5.60;99.90
10411;DHT22;5251;52.112;8.606;2022-12-07T07:45:59;5.60;99.90
10411;DHT22;5251;52.112;8.606;2022-12-07T07:48:25;5.60;99.90
10411;DHT22;5251;52.112;8.606;2022-12-07T07:50:51;5.50;99.90
10411;DHT22;5251;52.112;8.606;2022-12-07T07:53:16;5.50;99.90
10411;DHT22;5251;52.112;8.606;2022-12-07T07:55:49;5.50;99.90
10411;DHT22;5251;52.112;8.606;2022-12-07T07:58:15;5.50;99.90
10411;DHT22;5251;52.112;8.606;2022-12-07T08:00:41;5.50;99.90
10411;DHT22;5251;52.112;8.606;2022-12-07T08:03:06;5.50;99.90
10411;DHT22;5251;52.112;8.606;2022-12-07T08:05:32;5.50;99.90
10411;DHT22;5251;52.112;8.606;2022-12-07T08:07:57;5.50;99.90
10411;DHT22;5251;52.112;8.606;2022-12-07T08:10:23;5.50;99.90
10411;DHT22;5251;52.112;8.606;2022-12-07T08:12:48;5.60;99.90
10411;DHT22;5251;52.112;8.606;2022-12-07T08:15:32;5.60;99.90
10411;DHT22;5251;52.112;8.606;2022-12-07T08:17:59;5.70;99.90
10411;DHT22;5251;52.112;8.606;2022-12-07T08:20:25;5.80;99.90
10411;DHT22;5251;52.112;8.606;2022-12-07T08:22:50;5.80;99.90
10411;DHT22;5251;52.112;8.606;2022-12-07T08:25:16;5.90;99.90
10411;DHT22;5251;52.112;8.606;2022-12-07T08:27:42;5.90;99.90
10411;DHT22;5251;52.112;8.606;2022-12-07T08:30:08;6.00;99.90
10411;DHT22;5251;52.112;8.606;2022-12-07T08:32:34;6.20;99.90
10411;DHT22;5251;52.112;8.606;2022-12-07T08:34:59;6.10;99.90
10411;DHT22;5251;52.112;8.606;2022-12-07T08:37:25;6.20;99.90
10411;DHT22;5251;52.112;8.606;2022-12-07T08:39:50;6.20;99.90
10411;DHT22;5251;52.112;8.606;2022-12-07T08:42:16;6.30;99.90
10411;DHT22;5251;52.112;8.606;2022-12-07T08:44:42;6.40;99.90
10411;DHT22;5251;52.112;8.606;2022-12-07T08:47:08;6.40;99.90
10411;DHT22;5251;52.112;8.606;2022-12-07T08:49:40;6.40;99.90
10411;DHT22;5251;52.112;8.606;2022-12-07T08:52:07;6.50;99.90
10411;DHT22;5251;52.112;8.606;2022-12-07T08:54:34;6.60;99.90
10411;DHT22;5251;52.112;8.606;2022-12-07T08:57:00;6.60;99.90
10411;DHT22;5251;52.112;8.606;2022-12-07T08:59:26;6.70;99.90
10411;DHT22;5251;52.112;8.606;2022-12-07T09:01:53;6.70;99.90
10411;DHT22;5251;52.112;8.606;2022-12-07T09:04:18;6.80;99.90
10411;DHT22;5251;52.112;8.606;2022-12-07T09:06:44;6.90;99.90
10411;DHT22;5251;52.112;8.606;2022-12-07T09:09:10;7.00;99.90
10411;DHT22;5251;52.112;8.606;2022-12-07T09:11:37;7.10;99.90
10411;DHT22;5251;52.112;8.606;2022-12-07T09:14:02;7.10;99.90
10411;DHT22;5251;52.112;8.606;2022-12-07T09:16:28;7.20;99.90
10411;DHT22;5251;52.112;8.606;2022-12-07T09:18:54;7.20;99.90
10411;DHT22;5251;52.112;8.606;2022-12-07T09:21:19;7.30;99.90
10411;DHT22;5251;52.112;8.606;2022-12-07T09:23:45;7.40;99.90
10411;DHT22;5251;52.112;8.606;2022-12-07T09:26:10;7.40;99.90
10411;DHT22;5251;52.112;8.606;2022-12-07T09:28:36;7.40;99.90
10411;DHT22;5251;52.112;8.606;2022-12-07T09:31:03;7.50;99.90
10411;DHT22;5251;52.112;8.606;2022-12-07T09:33:29;7.50;99.90
10411;DHT22;5251;52.112;8.606;2022-12-07T09:35:54;7.40;99.90
10411;DHT22;5251;52.112;8.606;2022-12-07T09:38:20;7.40;99.90
10411;DHT22;5251;52.112;8.606;2022-12-07T09:40:46;7.40;99.90
10411;DHT22;5251;52.112;8.606;2022-12-07T09:43:19;7.40;99.90
10411;DHT22;5251;52.112;8.606;2022-12-07T09:45:47;7.40;99.90
10411;DHT22;5251;52.112;8.606;2022-12-07T09:48:49;7.30;99.90
10411;DHT22;5251;52.112;8.606;2022-12-07T09:51:22;7.30;99.90
10411;DHT22;5251;52.112;8.606;2022-12-07T09:53:49;7.30;99.90
10411;DHT22;5251;52.112;8.606;2022-12-07T09:56:17;7.30;99.90
10411;DHT22;5251;52.112;8.606;2022-12-07T09:58:44;7.30;99.90
10411;DHT22;5251;52.112;8.606;2022-12-07T10:01:16;7.30;99.90
10411;DHT22;5251;52.112;8.606;2022-12-07T10:03:50;7.30;99.90
10411;DHT22;5251;52.112;8.606;2022-12-07T10:06:16;7.30;99.90
10411;DHT22;5251;52.112;8.606;2022-12-07T10:08:42;7.30;99.90
10411;DHT22;5251;52.112;8.606;2022-12-07T10:11:09;7.30;99.90
10411;DHT22;5251;52.112;8.606;2022-12-07T10:13:51;7.30;99.90
10411;DHT22;5251;52.112;8.606;2022-12-07T10:18:54;7.40;99.90
10411;DHT22;5251;52.112;8.606;2022-12-07T10:21:25;7.40;99.90
10411;DHT22;5251;52.112;8.606;2022-12-07T10:24:14;7.50;99.90
10411;DHT22;5251;52.112;8.606;2022-12-07T10:29:16;7.60;99.90
10411;DHT22;5251;52.112;8.606;2022-12-07T10:31:43;7.60;99.90
10411;DHT22;5251;52.112;8.606;2022-12-07T10:42:29;7.90;99.90
10411;DHT22;5251;52.112;8.606;2022-12-07T10:45:13;8.00;99.90
10411;DHT22;5251;52.112;8.606;2022-12-07T10:53:47;8.10;99.90
10411;DHT22;5251;52.112;8.606;2022-12-07T10:56:29;8.20;99.90
10411;DHT22;5251;52.112;8.606;2022-12-07T10:59:24;8.20;99.90
10411;DHT22;5251;52.112;8.606;2022-12-07T11:04:35;8.40;99.90
10411;DHT22;5251;52.112;8.606;2022-12-07T11:07:22;8.40;99.90
10411;DHT22;5251;52.112;8.606;2022-12-07T11:13:05;8.40;99.90
10411;DHT22;5251;52.112;8.606;2022-12-07T11:15:50;8.40;99.90
10411;DHT22;5251;52.112;8.606;2022-12-07T11:18:26;8.40;99.90
10411;DHT22;5251;52.112;8.606;2022-12-07T11:21:07;8.40;99.90
10411;DHT22;5251;52.112;8.606;2022-12-07T11:23:56;8.40;99.90
10411;DHT22;5251;52.112;8.606;2022-12-07T11:27:04;8.40;99.90
10411;DHT22;5251;52.112;8.606;2022-12-07T11:29:53;8.40;99.90
10411;DHT22;5251;52.112;8.606;2022-12-07T11:37:46;8.60;99.90
10411;DHT22;5251;52.112;8.606;2022-12-07T11:40:33;8.60;99.90
10411;DHT22;5251;52.112;8.606;2022-12-07T11:43:05;8.70;99.90
10411;DHT22;5251;52.112;8.606;2022-12-07T11:45:37;8.70;99.90
10411;DHT22;5251;52.112;8.606;2022-12-07T11:48:19;8.70;99.90
10411;DHT22;5251;52.112;8.606;2022-12-07T11:50:54;8.70;99.90
10411;DHT22;5251;52.112;8.606;2022-12-07T11:56:15;8.80;99.90
10411;DHT22;5251;52.112;8.606;2022-12-07T12:01:53;8.70;99.90
10411;DHT22;5251;52.112;8.606;2022-12-07T12:04:51;8.70;99.90
10411;DHT22;5251;52.112;8.606;2022-12-07T12:07:23;8.70;99.90
10411;DHT22;5251;52.112;8.606;2022-12-07T12:10:05;8.70;99.90
10411;DHT22;5251;52.112;8.606;2022-12-07T12:21:46;9.00;99.90
10411;DHT22;5251;52.112;8.606;2022-12-07T12:24:19;9.10;99.90
10411;DHT22;5251;52.112;8.606;2022-12-07T12:26:54;9.20;99.90
10411;DHT22;5251;52.112;8.606;2022-12-07T12:29:35;9.30;99.90
10411;DHT22;5251;52.112;8.606;2022-12-07T12:32:30;9.50;99.90
10411;DHT22;5251;52.112;8.606;2022-12-07T12:35:00;9.60;99.90
10411;DHT22;5251;52.112;8.606;2022-12-07T12:37:39;9.70;99.90
10411;DHT22;5251;52.112;8.606;2022-12-07T12:42:51;10.00;99.90
10411;DHT22;5251;52.112;8.606;2022-12-07T12:45:24;10.10;99.90
10411;DHT22;5251;52.112;8.606;2022-12-07T12:48:01;10.20;99.90
10411;DHT22;5251;52.112;8.606;2022-12-07T12:50:38;10.30;99.90
10411;DHT22;5251;52.112;8.606;2022-12-07T12:58:37;10.40;99.30
10411;DHT22;5251;52.112;8.606;2022-12-07T13:01:40;10.40;99.10
10411;DHT22;5251;52.112;8.606;2022-12-07T13:04:40;10.40;99.10
10411;DHT22;5251;52.112;8.606;2022-12-07T13:10:00;10.30;98.90
10411;DHT22;5251;52.112;8.606;2022-12-07T13:12:27;10.30;98.90
10411;DHT22;5251;52.112;8.606;2022-12-07T13:14:57;10.30;98.80
10411;DHT22;5251;52.112;8.606;2022-12-07T13:20:07;10.20;98.90
10411;DHT22;5251;52.112;8.606;2022-12-07T13:27:41;10.20;98.90
10411;DHT22;5251;52.112;8.606;2022-12-07T13:30:19;10.20;98.90
10411;DHT22;5251;52.112;8.606;2022-12-07T13:32:56;10.20;98.90
10411;DHT22;5251;52.112;8.606;2022-12-07T13:35:33;10.20;98.80
10411;DHT22;5251;52.112;8.606;2022-12-07T13:38:01;10.20;98.80
10411;DHT22;5251;52.112;8.606;2022-12-07T13:40:27;10.20;98.80
10411;DHT22;5251;52.112;8.606;2022-12-07T13:43:04;10.20;98.70
10411;DHT22;5251;52.112;8.606;2022-12-07T13:45:32;10.20;98.60
10411;DHT22;5251;52.112;8.606;2022-12-07T13:48:32;10.20;98.50
10411;DHT22;5251;52.112;8.606;2022-12-07T13:51:00;10.20;98.40
10411;DHT22;5251;52.112;8.606;2022-12-07T13:53:27;10.20;98.30
10411;DHT22;5251;52.112;8.606;2022-12-07T13:55:57;10.10;98.40
10411;DHT22;5251;52.112;8.606;2022-12-07T13:58:24;10.10;98.00
10411;DHT22;5251;52.112;8.606;2022-12-07T14:00:50;10.10;98.00
10411;DHT22;5251;52.112;8.606;2022-12-07T14:05:44;10.00;98.00
10411;DHT22;5251;52.112;8.606;2022-12-07T14:15:59;9.80;98.20
10411;DHT22;5251;52.112;8.606;2022-12-07T14:18:39;9.70;98.10
10411;DHT22;5251;52.112;8.606;2022-12-07T14:21:19;9.60;98.50
10411;DHT22;5251;52.112;8.606;2022-12-07T14:23:45;9.50;98.10
10411;DHT22;5251;52.112;8.606;2022-12-07T14:26:26;9.40;98.10
10411;DHT22;5251;52.112;8.606;2022-12-07T14:28:52;9.30;98.20
10411;DHT22;5251;52.112;8.606;2022-12-07T14:31:21;9.20;98.10
10411;DHT22;5251;52.112;8.606;2022-12-07T14:33:49;9.10;98.20
10411;DHT22;5251;52.112;8.606;2022-12-07T14:36:15;9.00;98.30
10411;DHT22;5251;52.112;8.606;2022-12-07T14:38:40;8.80;98.50
10411;DHT22;5251;52.112;8.606;2022-12-07T14:41:12;8.80;98.60
10411;DHT22;5251;52.112;8.606;2022-12-07T14:43:57;8.70;98.70
10411;DHT22;5251;52.112;8.606;2022-12-07T14:46:22;8.70;98.90
10411;DHT22;5251;52.112;8.606;2022-12-07T14:48:49;8.60;98.90
10411;DHT22;5251;52.112;8.606;2022-12-07T14:51:14;8.50;99.00
10411;DHT22;5251;52.112;8.606;2022-12-07T14:53:47;8.40;99.00
10411;DHT22;5251;52.112;8.606;2022-12-07T14:56:13;8.40;99.00
10411;DHT22;5251;52.112;8.606;2022-12-07T14:58:40;8.30;99.10
10411;DHT22;5251;52.112;8.606;2022-12-07T15:01:05;8.20;99.10
10411;DHT22;5251;52.112;8.606;2022-12-07T15:03:31;8.20;99.20
10411;DHT22;5251;52.112;8.606;2022-12-07T15:05:57;8.10;99.30
10411;DHT22;5251;52.112;8.606;2022-12-07T15:08:22;8.10;99.30
10411;DHT22;5251;52.112;8.606;2022-12-07T15:10:48;8.00;99.30
10411;DHT22;5251;52.112;8.606;2022-12-07T15:13:14;8.00;99.80
10411;DHT22;5251;52.112;8.606;2022-12-07T15:15:58;7.90;99.50
10411;DHT22;5251;52.112;8.606;2022-12-07T15:18:24;7.80;99.60
10411;DHT22;5251;52.112;8.606;2022-12-07T15:20:50;7.80;99.70
10411;DHT22;5251;52.112;8.606;2022-12-07T15:23:16;7.80;99.80
10411;DHT22;5251;52.112;8.606;2022-12-07T15:25:43;7.80;99.90
10411;DHT22;5251;52.112;8.606;2022-12-07T15:28:09;7.70;99.90
10411;DHT22;5251;52.112;8.606;2022-12-07T15:30:37;7.80;99.90
10411;DHT22;5251;52.112;8.606;2022-12-07T15:33:03;7.70;99.90
10411;DHT22;5251;52.112;8.606;2022-12-07T15:35:28;7.80;99.90
10411;DHT22;5251;52.112;8.606;2022-12-07T15:37:54;7.80;99.90
10411;DHT22;5251;52.112;8.606;2022-12-07T15:40:19;7.80;99.90
10411;DHT22;5251;52.112;8.606;2022-12-07T15:42:45;7.80;99.90
10411;DHT22;5251;52.112;8.606;2022-12-07T15:45:11;7.80;99.90
10411;DHT22;5251;52.112;8.606;2022-12-07T15:47:41;7.80;99.90
10411;DHT22;5251;52.112;8.606;2022-12-07T15:50:09;7.90;99.90
10411;DHT22;5251;52.112;8.606;2022-12-07T15:52:35;7.90;99.90
10411;DHT22;5251;52.112;8.606;2022-12-07T15:55:01;7.90;99.90
10411;DHT22;5251;52.112;8.606;2022-12-07T15:57:32;7.90;99.90
10411;DHT22;5251;52.112;8.606;2022-12-07T15:59:58;7.90;99.90
10411;DHT22;5251;52.112;8.606;2022-12-07T16:02:24;7.90;99.90
10411;DHT22;5251;52.112;8.606;2022-12-07T16:04:50;7.90;99.90
10411;DHT22;5251;52.112;8.606;2022-12-07T16:07:16;7.90;99.90
10411;DHT22;5251;52.112;8.606;2022-12-07T16:09:43;7.80;99.90
10411;DHT22;5251;52.112;8.606;2022-12-07T16:12:09;7.80;99.90
10411;DHT22;5251;52.112;8.606;2022-12-07T16:14:36;7.70;99.90
10411;DHT22;5251;52.112;8.606;2022-12-07T16:17:02;7.70;99.90
10411;DHT22;5251;52.112;8.606;2022-12-07T16:19:30;7.60;99.90
10411;DHT22;5251;52.112;8.606;2022-12-07T16:21:55;7.50;99.90
10411;DHT22;5251;52.112;8.606;2022-12-07T16:24:21;7.40;99.90
10411;DHT22;5251;52.112;8.606;2022-12-07T16:26:48;7.30;99.90
10411;DHT22;5251;52.112;8.606;2022-12-07T16:29:14;7.30;99.90
10411;DHT22;5251;52.112;8.606;2022-12-07T16:31:40;7.20;99.90
10411;DHT22;5251;52.112;8.606;2022-12-07T16:34:06;7.10;99.90
10411;DHT22;5251;52.112;8.606;2022-12-07T16:36:31;7.00;99.90
10411;DHT22;5251;52.112;8.606;2022-12-07T16:39:01;6.90;99.90
10411;DHT22;5251;52.112;8.606;2022-12-07T16:41:27;6.90;99.90
10411;DHT22;5251;52.112;8.606;2022-12-07T16:43:52;6.80;99.90
10411;DHT22;5251;52.112;8.606;2022-12-07T16:46:18;6.80;99.90
10411;DHT22;5251;52.112;8.606;2022-12-07T16:48:44;6.70;99.90
10411;DHT22;5251;52.112;8.606;2022-12-07T16:51:11;6.60;99.90
10411;DHT22;5251;52.112;8.606;2022-12-07T16:53:39;6.50;99.90
10411;DHT22;5251;52.112;8.606;2022-12-07T16:56:13;6.50;99.90
10411;DHT22;5251;52.112;8.606;2022-12-07T16:58:40;6.40;99.90
10411;DHT22;5251;52.112;8.606;2022-12-07T17:01:12;6.40;99.90
10411;DHT22;5251;52.112;8.606;2022-12-07T17:03:38;6.40;99.90
10411;DHT22;5251;52.112;8.606;2022-12-07T17:06:14;6.30;99.90
10411;DHT22;5251;52.112;8.606;2022-12-07T17:08:40;6.30;99.90
10411;DHT22;5251;52.112;8.606;2022-12-07T17:11:14;6.30;99.90
10411;DHT22;5251;52.112;8.606;2022-12-07T17:13:40;6.30;99.90
10411;DHT22;5251;52.112;8.606;2022-12-07T17:16:25;6.30;99.90
10411;DHT22;5251;52.112;8.606;2022-12-07T17:18:51;6.20;99.90
10411;DHT22;5251;52.112;8.606;2022-12-07T17:21:17;6.30;99.90
10411;DHT22;5251;52.112;8.606;2022-12-07T17:23:43;6.30;99.90
10411;DHT22;5251;52.112;8.606;2022-12-07T17:26:20;6.30;99.90
10411;DHT22;5251;52.112;8.606;2022-12-07T17:28:47;6.30;99.90
10411;DHT22;5251;52.112;8.606;2022-12-07T17:31:14;6.40;99.90
10411;DHT22;5251;52.112;8.606;2022-12-07T17:33:40;6.40;99.90
10411;DHT22;5251;52.112;8.606;2022-12-07T17:36:10;6.30;99.90
10411;DHT22;5251;52.112;8.606;2022-12-07T17:38:36;6.40;99.90
10411;DHT22;5251;52.112;8.606;2022-12-07T17:41:12;6.40;99.90
10411;DHT22;5251;52.112;8.606;2022-12-07T17:43:58;6.40;99.90
10411;DHT22;5251;52.112;8.606;2022-12-07T17:46:23;6.40;99.90
10411;DHT22;5251;52.112;8.606;2022-12-07T17:48:50;6.40;99.90
10411;DHT22;5251;52.112;8.606;2022-12-07T17:51:15;6.50;99.90
10411;DHT22;5251;52.112;8.606;2022-12-07T17:54:01;6.50;99.90